createdAt,value
2022-12-25T00:04:30.444Z,6.30
2022-12-25T00:06:59.544Z,6.20
2022-12-25T00:09:27.466Z,6.20
2022-12-25T00:14:23.082Z,6.30
2022-12-25T00:16:50.783Z,6.30
2022-12-25T00:21:46.271Z,6.20
2022-12-25T00:24:13.828Z,6.10
2022-12-25T00:29:12.109Z,9.50
2022-12-25T00:31:39.703Z,6.10
2022-12-25T00:34:07.326Z,6.10
2022-12-25T00:36:41.199Z,6.00
2022-12-25T00:39:09.828Z,6.10
2022-12-25T00:41:55.949Z,6.10
2022-12-25T00:44:23.772Z,6.20
2022-12-25T00:46:51.388Z,6.20
2022-12-25T00:49:19.116Z,6.20
2022-12-25T00:51:46.693Z,6.30
2022-12-25T00:54:14.347Z,5.20
2022-12-25T00:59:10.644Z,6.60
2022-12-25T01:01:39.110Z,6.60
2022-12-25T01:04:08.884Z,6.60
2022-12-25T01:06:37.182Z,6.70
2022-12-25T01:09:24.171Z,6.70
2022-12-25T01:11:54.716Z,6.80
2022-12-25T01:14:23.492Z,6.80
2022-12-25T01:19:19.443Z,6.90
2022-12-25T01:21:47.187Z,6.90
2022-12-25T01:24:16.308Z,6.90
2022-12-25T01:26:43.945Z,6.90
2022-12-25T01:29:11.661Z,6.90
2022-12-25T01:31:39.296Z,6.90
2022-12-25T01:34:07.123Z,6.90
2022-12-25T01:36:34.862Z,7.00
2022-12-25T01:39:03.674Z,7.00
2022-12-25T01:41:31.998Z,7.00
2022-12-25T01:44:15.255Z,7.00
2022-12-25T01:46:44.175Z,7.00
2022-12-25T01:49:21.075Z,7.00
2022-12-25T01:51:57.191Z,6.90
2022-12-25T01:54:30.235Z,6.70
2022-12-25T01:57:01.545Z,6.70
2022-12-25T01:59:29.846Z,6.40
2022-12-25T02:01:57.734Z,6.40
2022-12-25T02:04:39.672Z,6.30
2022-12-25T02:07:18.209Z,6.10
2022-12-25T02:09:48.018Z,6.10
2022-12-25T02:12:26.004Z,6.10
2022-12-25T02:15:04.664Z,6.10
2022-12-25T02:18:06.355Z,6.20
2022-12-25T02:21:21.238Z,6.20
2022-12-25T02:24:17.821Z,6.20
2022-12-25T02:27:07.469Z,6.20
2022-12-25T02:29:47.170Z,6.20
2022-12-25T02:32:25.329Z,6.20
2022-12-25T02:35:11.784Z,6.10
2022-12-25T02:38:14.766Z,6.10
2022-12-25T02:40:54.923Z,6.20
2022-12-25T02:43:48.291Z,6.30
2022-12-25T02:46:39.168Z,6.40
2022-12-25T02:49:30.565Z,6.50
2022-12-25T02:52:39.431Z,6.60
2022-12-25T02:55:28.415Z,6.80
2022-12-25T02:58:19.072Z,6.90
2022-12-25T03:01:09.082Z,7.00
2022-12-25T03:03:59.290Z,7.00
2022-12-25T03:06:45.111Z,7.00
2022-12-25T03:09:39.101Z,7.10
2022-12-25T03:12:37.412Z,7.00
2022-12-25T03:15:26.574Z,6.90
2022-12-25T03:17:58.518Z,6.90
2022-12-25T03:20:44.968Z,6.80
2022-12-25T03:23:34.460Z,6.90
2022-12-25T03:26:20.782Z,6.80
2022-12-25T03:28:48.448Z,6.70
2022-12-25T03:31:46.761Z,6.70
2022-12-25T03:34:54.368Z,6.60
2022-12-25T03:37:43.822Z,6.60
2022-12-25T03:40:51.330Z,6.60
2022-12-25T03:43:50.043Z,6.60
2022-12-25T03:46:39.605Z,6.40
2022-12-25T03:49:49.583Z,6.40
2022-12-25T03:52:38.494Z,6.40
2022-12-25T03:55:28.880Z,6.40
2022-12-25T03:58:15.667Z,6.40
2022-12-25T04:01:01.900Z,6.40
2022-12-25T04:03:48.088Z,6.40
2022-12-25T04:06:34.004Z,6.40
2022-12-25T04:12:06.718Z,6.40
2022-12-25T04:14:52.730Z,6.30
2022-12-25T04:17:40.164Z,6.30
2022-12-25T04:20:27.160Z,6.30
2022-12-25T04:23:13.213Z,6.20
2022-12-25T04:25:59.288Z,6.30
2022-12-25T04:28:45.323Z,6.30
2022-12-25T04:31:32.000Z,6.30
2022-12-25T04:34:18.069Z,6.30
2022-12-25T04:36:45.826Z,6.40
2022-12-25T04:39:13.462Z,6.50
2022-12-25T04:44:11.471Z,6.60
2022-12-25T04:49:06.931Z,6.50
2022-12-25T04:51:34.637Z,6.50
2022-12-25T04:54:02.176Z,6.50
2022-12-25T04:56:29.840Z,6.50
2022-12-25T04:58:57.724Z,6.50
2022-12-25T05:03:53.407Z,6.50
2022-12-25T05:06:21.571Z,6.40
2022-12-25T05:11:17.771Z,6.40
2022-12-25T05:13:45.317Z,6.40
2022-12-25T05:16:19.338Z,6.30
2022-12-25T05:18:51.309Z,6.30
2022-12-25T05:21:19.856Z,6.30
2022-12-25T05:23:53.475Z,6.20
2022-12-25T05:26:24.035Z,6.20
2022-12-25T05:28:52.209Z,6.20
2022-12-25T05:31:20.166Z,6.20
2022-12-25T05:33:51.539Z,6.20
2022-12-25T05:36:19.853Z,6.20
2022-12-25T05:38:47.853Z,6.20
2022-12-25T05:41:15.416Z,6.20
2022-12-25T05:46:11.715Z,6.10
2022-12-25T05:51:10.417Z,6.10
2022-12-25T05:53:39.076Z,6.10
2022-12-25T05:56:07.881Z,6.20
2022-12-25T05:58:37.990Z,6.20
2022-12-25T06:01:14.930Z,6.20
2022-12-25T06:03:43.033Z,6.20
2022-12-25T06:06:11.182Z,6.20
2022-12-25T06:08:40.516Z,6.20
2022-12-25T06:11:14.282Z,6.20
2022-12-25T06:13:42.120Z,6.30
2022-12-25T06:16:11.710Z,6.20
2022-12-25T06:18:45.160Z,6.20
2022-12-25T06:21:14.617Z,6.30
2022-12-25T06:23:42.797Z,6.30
2022-12-25T06:26:21.441Z,6.30
2022-12-25T06:28:49.221Z,6.30
2022-12-25T06:31:21.746Z,6.30
2022-12-25T06:33:49.818Z,6.40
2022-12-25T06:36:26.374Z,6.40
2022-12-25T06:38:54.922Z,6.40
2022-12-25T06:41:24.886Z,6.40
2022-12-25T06:43:55.060Z,6.30
2022-12-25T06:46:24.506Z,6.30
2022-12-25T06:48:52.159Z,6.30
2022-12-25T06:51:22.728Z,6.20
2022-12-25T06:53:51.891Z,4.00
2022-12-25T06:56:22.309Z,6.10
2022-12-25T06:58:53.063Z,6.00
2022-12-25T07:01:59.283Z,6.00
2022-12-25T07:04:41.137Z,6.00
2022-12-25T07:07:10.878Z,6.00
2022-12-25T07:09:42.861Z,6.00
2022-12-25T07:12:13.693Z,6.00
2022-12-25T07:14:41.487Z,6.00
2022-12-25T07:17:09.086Z,6.00
2022-12-25T07:19:42.682Z,6.00
2022-12-25T07:22:13.599Z,6.00
2022-12-25T07:24:41.310Z,6.00
2022-12-25T07:27:09.011Z,6.00
2022-12-25T07:29:36.705Z,6.00
2022-12-25T07:37:00.254Z,6.10
2022-12-25T07:39:28.760Z,6.10
2022-12-25T07:41:56.569Z,6.00
2022-12-25T07:44:27.602Z,6.00
2022-12-25T07:46:56.498Z,5.90
2022-12-25T07:51:51.997Z,5.90
2022-12-25T07:54:19.708Z,5.90
2022-12-25T07:56:54.490Z,6.00
2022-12-25T07:59:22.163Z,6.00
2022-12-25T08:01:51.006Z,6.10
2022-12-25T08:04:19.138Z,6.00
2022-12-25T08:06:47.418Z,6.00
2022-12-25T08:09:15.118Z,5.90
2022-12-25T08:11:47.082Z,5.90
2022-12-25T08:16:43.662Z,8.10
2022-12-25T08:19:12.834Z,5.80
2022-12-25T08:21:40.492Z,5.80
2022-12-25T08:26:36.325Z,5.80
2022-12-25T08:29:04.133Z,5.80
2022-12-25T08:31:34.216Z,5.90
2022-12-25T08:34:03.756Z,5.90
2022-12-25T08:36:31.521Z,6.00
2022-12-25T08:39:02.960Z,6.10
2022-12-25T08:41:31.980Z,6.10
2022-12-25T08:43:59.639Z,6.20
2022-12-25T08:46:27.393Z,6.20
2022-12-25T08:48:56.752Z,6.20
2022-12-25T08:51:25.881Z,5.10
2022-12-25T08:53:58.228Z,6.30
2022-12-25T08:56:26.966Z,6.30
2022-12-25T08:58:54.658Z,6.40
2022-12-25T09:01:22.462Z,6.50
2022-12-25T09:03:50.149Z,6.60
2022-12-25T09:06:17.956Z,6.70
2022-12-25T09:08:49.261Z,6.70
2022-12-25T09:11:20.001Z,6.80
2022-12-25T09:13:48.880Z,6.90
2022-12-25T09:16:20.440Z,6.90
2022-12-25T09:18:48.865Z,7.00
2022-12-25T09:21:17.028Z,7.00
2022-12-25T09:26:15.378Z,7.10
2022-12-25T09:28:50.787Z,7.20
2022-12-25T09:31:21.275Z,7.30
2022-12-25T09:36:18.073Z,7.40
2022-12-25T09:38:45.658Z,7.50
2022-12-25T09:41:20.092Z,7.60
2022-12-25T09:43:52.907Z,7.70
2022-12-25T09:46:25.193Z,7.70
2022-12-25T09:49:16.131Z,7.80
2022-12-25T09:51:45.751Z,7.90
2022-12-25T09:54:30.597Z,8.00
2022-12-25T09:56:58.405Z,8.10
2022-12-25T09:59:27.413Z,8.20
2022-12-25T10:02:24.051Z,8.20
2022-12-25T10:05:20.872Z,8.30
2022-12-25T10:07:56.417Z,8.40
2022-12-25T10:10:48.788Z,8.40
2022-12-25T10:13:39.904Z,8.50
2022-12-25T10:16:31.498Z,8.60
2022-12-25T10:19:05.244Z,8.70
2022-12-25T10:21:33.279Z,8.80
2022-12-25T10:24:14.466Z,8.90
2022-12-25T10:26:42.518Z,9.00
2022-12-25T10:29:15.205Z,9.00
2022-12-25T10:31:49.690Z,9.00
2022-12-25T10:34:17.567Z,9.00
2022-12-25T10:36:47.871Z,9.00
2022-12-25T10:39:21.817Z,9.00
2022-12-25T10:42:17.414Z,9.00
2022-12-25T10:45:14.820Z,9.00
2022-12-25T10:47:45.143Z,9.00
2022-12-25T10:50:24.711Z,9.00
2022-12-25T10:53:01.742Z,9.10
2022-12-25T10:55:29.923Z,9.00
2022-12-25T10:57:58.736Z,9.00
2022-12-25T11:00:29.890Z,9.00
2022-12-25T11:05:29.598Z,9.00
2022-12-25T11:08:00.152Z,9.00
2022-12-25T11:10:32.108Z,9.00
2022-12-25T11:13:01.518Z,9.10
2022-12-25T11:15:45.334Z,9.10
2022-12-25T11:18:26.010Z,9.20
2022-12-25T11:20:55.179Z,9.20
2022-12-25T11:23:26.438Z,9.30
2022-12-25T11:26:04.815Z,9.30
2022-12-25T11:28:35.395Z,9.40
2022-12-25T11:31:16.403Z,12.20
2022-12-25T11:34:04.101Z,9.60
2022-12-25T11:36:42.122Z,9.60
2022-12-25T11:39:23.817Z,9.60
2022-12-25T11:42:09.451Z,9.70
2022-12-25T11:44:47.608Z,9.70
2022-12-25T11:47:56.709Z,9.80
2022-12-25T11:50:36.285Z,9.80
2022-12-25T11:53:35.127Z,9.80
2022-12-25T11:56:11.527Z,9.80
2022-12-25T11:58:53.830Z,9.80
2022-12-25T12:01:40.982Z,9.90
2022-12-25T12:04:40.295Z,10.00
2022-12-25T12:07:29.364Z,10.00
2022-12-25T12:10:15.641Z,10.00
2022-12-25T12:13:28.375Z,10.10
2022-12-25T12:15:56.841Z,10.10
2022-12-25T12:18:27.500Z,10.10
2022-12-25T12:21:16.552Z,10.10
2022-12-25T12:24:09.657Z,10.10
2022-12-25T12:26:40.994Z,10.10
2022-12-25T12:29:23.081Z,9.10
2022-12-25T12:31:51.830Z,10.10
2022-12-25T12:34:26.703Z,10.10
2022-12-25T12:37:06.563Z,10.30
2022-12-25T12:39:38.591Z,10.30
2022-12-25T12:42:26.207Z,10.40
2022-12-25T12:44:56.919Z,10.40
2022-12-25T12:47:38.276Z,10.70
2022-12-25T12:50:06.814Z,10.90
2022-12-25T12:52:42.191Z,11.10
2022-12-25T12:55:13.409Z,11.20
2022-12-25T12:57:41.583Z,11.30
2022-12-25T13:00:19.717Z,11.20
2022-12-25T13:02:57.179Z,11.10
2022-12-25T13:05:48.181Z,11.10
2022-12-25T13:08:45.795Z,11.10
2022-12-25T13:11:39.018Z,11.10
2022-12-25T13:14:14.071Z,11.10
2022-12-25T13:16:45.488Z,11.00
2022-12-25T13:19:18.431Z,10.90
2022-12-25T13:22:03.875Z,10.90
2022-12-25T13:24:34.915Z,10.80
2022-12-25T13:27:25.823Z,10.70
2022-12-25T13:29:53.990Z,10.60
2022-12-25T13:32:26.255Z,13.00
2022-12-25T13:34:55.115Z,10.70
2022-12-25T13:37:28.615Z,10.50
2022-12-25T13:39:56.762Z,10.50
2022-12-25T13:42:31.003Z,10.50
2022-12-25T13:45:19.675Z,10.50
2022-12-25T13:47:54.675Z,10.50
2022-12-25T13:50:32.848Z,10.50
2022-12-25T13:53:17.219Z,10.50
2022-12-25T13:55:50.989Z,10.50
2022-12-25T13:58:31.293Z,10.50
2022-12-25T14:01:01.986Z,10.50
2022-12-25T14:03:42.707Z,10.50
2022-12-25T14:06:24.546Z,10.40
2022-12-25T14:08:54.333Z,10.40
2022-12-25T14:11:24.143Z,10.40
2022-12-25T14:13:57.562Z,10.40
2022-12-25T14:16:27.184Z,10.40
2022-12-25T14:19:01.406Z,10.40
2022-12-25T14:21:38.890Z,10.30
2022-12-25T14:24:17.432Z,10.30
2022-12-25T14:26:45.522Z,10.30
2022-12-25T14:29:20.464Z,10.30
2022-12-25T14:31:50.960Z,10.20
2022-12-25T14:34:24.855Z,10.20
2022-12-25T14:36:53.906Z,10.20
2022-12-25T14:39:45.361Z,10.10
2022-12-25T14:42:22.831Z,11.90
2022-12-25T14:45:29.369Z,10.00
2022-12-25T14:48:01.258Z,10.00
2022-12-25T14:50:40.063Z,10.00
2022-12-25T14:53:20.354Z,10.00
2022-12-25T14:55:54.570Z,10.00
2022-12-25T14:58:26.754Z,9.90
2022-12-25T15:01:04.299Z,9.90
2022-12-25T15:03:37.656Z,9.90
2022-12-25T15:06:20.784Z,9.80
2022-12-25T15:09:00.377Z,9.70
2022-12-25T15:11:30.448Z,9.70
2022-12-25T15:13:59.047Z,9.70
2022-12-25T15:16:31.240Z,9.70
2022-12-25T15:19:01.871Z,9.70
2022-12-25T15:21:33.545Z,9.60
2022-12-25T15:24:01.752Z,9.60
2022-12-25T15:26:32.896Z,9.50
2022-12-25T15:29:00.906Z,9.50
2022-12-25T15:31:31.885Z,9.50
2022-12-25T15:34:02.389Z,9.50
2022-12-25T15:36:31.408Z,9.50
2022-12-25T15:38:59.349Z,9.50
2022-12-25T15:41:53.930Z,9.40
2022-12-25T15:44:22.494Z,9.40
2022-12-25T15:46:50.503Z,9.40
2022-12-25T15:49:18.402Z,9.00
2022-12-25T15:51:46.697Z,9.30
2022-12-25T15:54:14.487Z,9.30
2022-12-25T15:56:46.752Z,9.30
2022-12-25T15:59:16.114Z,9.30
2022-12-25T16:01:50.157Z,9.20
2022-12-25T16:04:18.726Z,9.30
2022-12-25T16:06:47.103Z,9.20
2022-12-25T16:09:16.625Z,9.20
2022-12-25T16:11:44.279Z,9.20
2022-12-25T16:14:12.599Z,9.20
2022-12-25T16:16:40.570Z,9.20
2022-12-25T16:19:08.468Z,9.20
2022-12-25T16:21:45.606Z,9.20
2022-12-25T16:24:14.077Z,9.10
2022-12-25T16:26:42.454Z,9.10
2022-12-25T16:29:10.756Z,9.10
2022-12-25T16:31:39.704Z,9.10
2022-12-25T16:34:08.978Z,9.10
2022-12-25T16:36:37.409Z,9.00
2022-12-25T16:39:07.280Z,9.00
2022-12-25T16:44:09.677Z,10.40
2022-12-25T16:46:39.760Z,8.90
2022-12-25T16:49:07.696Z,8.90
2022-12-25T16:54:03.338Z,8.80
2022-12-25T16:56:32.377Z,8.70
2022-12-25T16:59:01.068Z,8.70
2022-12-25T17:04:01.580Z,8.70
2022-12-25T17:06:29.746Z,8.60
2022-12-25T17:08:58.595Z,8.60
2022-12-25T17:11:30.309Z,8.60
2022-12-25T17:14:00.427Z,8.60
2022-12-25T17:16:30.719Z,8.60
2022-12-25T17:19:05.103Z,8.60
2022-12-25T17:21:34.338Z,8.60
2022-12-25T17:24:04.132Z,8.60
2022-12-25T17:26:33.131Z,8.70
2022-12-25T17:29:01.233Z,8.70
2022-12-25T17:31:29.213Z,8.70
2022-12-25T17:33:56.777Z,8.70
2022-12-25T17:36:24.273Z,8.70
2022-12-25T17:38:51.885Z,8.50
2022-12-25T17:41:20.309Z,8.40
2022-12-25T17:43:48.688Z,8.20
2022-12-25T17:46:18.894Z,8.20
2022-12-25T17:48:47.547Z,8.20
2022-12-25T17:51:17.167Z,8.20
2022-12-25T17:53:48.517Z,8.20
2022-12-25T17:56:17.985Z,8.10
2022-12-25T17:58:53.819Z,8.20
2022-12-25T18:01:22.938Z,8.20
2022-12-25T18:03:51.678Z,8.20
2022-12-25T18:06:22.420Z,8.20
2022-12-25T18:08:50.310Z,8.20
2022-12-25T18:11:21.704Z,8.20
2022-12-25T18:13:52.209Z,8.20
2022-12-25T18:16:23.440Z,8.20
2022-12-25T18:18:52.983Z,8.30
2022-12-25T18:21:22.380Z,8.20
2022-12-25T18:23:50.511Z,8.10
2022-12-25T18:26:18.850Z,8.20
2022-12-25T18:28:47.934Z,8.20
2022-12-25T18:31:18.731Z,8.10
2022-12-25T18:33:47.407Z,8.00
2022-12-25T18:36:16.853Z,7.90
2022-12-25T18:38:44.619Z,7.80
2022-12-25T18:41:12.427Z,7.80
2022-12-25T18:43:53.769Z,7.60
2022-12-25T18:46:25.353Z,7.60
2022-12-25T18:48:57.057Z,7.60
2022-12-25T18:53:58.783Z,7.50
2022-12-25T18:56:26.948Z,7.50
2022-12-25T18:58:54.629Z,7.40
2022-12-25T19:01:24.074Z,7.40
2022-12-25T19:03:56.061Z,7.30
2022-12-25T19:06:32.990Z,7.20
2022-12-25T19:09:00.729Z,7.30
2022-12-25T19:11:28.429Z,7.30
2022-12-25T19:13:56.752Z,7.30
2022-12-25T19:18:52.759Z,7.30
2022-12-25T19:21:20.321Z,7.20
2022-12-25T19:23:47.979Z,7.20
2022-12-25T19:26:15.814Z,7.20
2022-12-25T19:28:43.397Z,7.20
2022-12-25T19:31:11.907Z,7.20
2022-12-25T19:33:41.729Z,7.10
2022-12-25T19:36:12.437Z,7.10
2022-12-25T19:38:40.767Z,7.10
2022-12-25T19:41:12.821Z,7.10
2022-12-25T19:43:41.711Z,7.10
2022-12-25T19:46:19.047Z,7.00
2022-12-25T19:48:47.316Z,7.00
2022-12-25T19:51:19.759Z,7.00
2022-12-25T19:53:48.031Z,7.00
2022-12-25T19:56:16.138Z,6.90
2022-12-25T20:01:12.983Z,6.90
2022-12-25T20:03:46.204Z,6.70
2022-12-25T20:06:26.243Z,6.70
2022-12-25T20:09:00.029Z,6.60
2022-12-25T20:11:29.580Z,6.60
2022-12-25T20:13:57.674Z,6.60
2022-12-25T20:16:25.873Z,6.50
2022-12-25T20:18:53.857Z,6.50
2022-12-25T20:21:23.077Z,6.50
2022-12-25T20:23:52.516Z,6.60
2022-12-25T20:26:22.472Z,6.60
2022-12-25T20:28:50.426Z,6.60
2022-12-25T20:31:21.533Z,6.60
2022-12-25T20:33:50.358Z,6.60
2022-12-25T20:36:19.116Z,6.70
2022-12-25T20:38:47.040Z,6.70
2022-12-25T20:41:26.917Z,6.80
2022-12-25T20:43:55.869Z,6.80
2022-12-25T20:46:24.560Z,6.90
2022-12-25T20:48:53.078Z,7.00
2022-12-25T20:51:23.923Z,7.00
2022-12-25T20:53:52.396Z,7.00
2022-12-25T20:56:22.399Z,7.00
2022-12-25T20:59:01.622Z,7.10
2022-12-25T21:01:30.713Z,7.10
2022-12-25T21:03:59.156Z,7.10
2022-12-25T21:07:02.990Z,7.10
2022-12-25T21:09:33.844Z,7.20
2022-12-25T21:12:03.053Z,7.20
2022-12-25T21:14:32.394Z,7.20
2022-12-25T21:28:52.016Z,7.10
2022-12-25T21:31:22.011Z,7.00
2022-12-25T21:33:51.749Z,7.10
2022-12-25T21:36:34.649Z,7.00
2022-12-25T21:39:08.075Z,7.00
2022-12-25T21:41:38.665Z,6.90
2022-12-25T21:44:07.307Z,6.90
2022-12-25T21:46:35.157Z,6.80
2022-12-25T21:51:53.037Z,6.90
2022-12-25T21:54:24.179Z,7.00
2022-12-25T21:56:52.141Z,6.90
2022-12-25T21:59:21.748Z,7.00
2022-12-25T22:01:51.162Z,7.00
2022-12-25T22:04:21.760Z,6.90
2022-12-25T22:07:08.650Z,7.00
2022-12-25T22:12:24.449Z,6.90
2022-12-25T22:14:58.197Z,6.90
2022-12-25T22:23:16.338Z,6.90
2022-12-25T22:28:12.283Z,8.70
2022-12-25T22:30:42.099Z,6.90
2022-12-25T22:35:37.743Z,6.80
2022-12-25T22:38:05.751Z,6.80
2022-12-25T22:40:33.399Z,6.80
2022-12-25T22:43:01.125Z,6.80
2022-12-25T22:45:28.714Z,6.80
2022-12-25T22:47:59.039Z,6.80
2022-12-25T22:50:26.723Z,6.80
2022-12-25T22:53:03.303Z,6.80
2022-12-25T22:55:45.790Z,6.80
2022-12-25T22:58:13.783Z,6.90
2022-12-25T23:00:46.593Z,7.00
2022-12-25T23:05:45.617Z,7.20
2022-12-25T23:08:13.802Z,7.20
2022-12-25T23:10:41.549Z,7.20
2022-12-25T23:13:28.388Z,7.30
2022-12-25T23:15:56.456Z,7.40
2022-12-25T23:18:42.855Z,7.40
2022-12-25T23:21:37.827Z,7.50
2022-12-25T23:24:24.548Z,7.40
2022-12-25T23:29:39.371Z,7.40
2022-12-25T23:32:10.013Z,7.40
2022-12-25T23:34:39.822Z,7.40
2022-12-25T23:37:07.797Z,7.50
2022-12-25T23:39:35.436Z,7.50
2022-12-25T23:42:03.307Z,7.60
2022-12-25T23:44:31.047Z,7.60
2022-12-25T23:47:01.434Z,7.70
2022-12-25T23:49:29.903Z,7.70
2022-12-25T23:51:57.521Z,7.70
2022-12-25T23:54:37.628Z,7.80
2022-12-25T23:57:57.076Z,7.80
